Amr R — XUAX5 — position and weather

sailwx.info

Track history (hours):
 
Tides and Currents Weather Stations Pressure Air Temp Water Temp Dewpoint Dewpoint Depression Visibility Wind Speed Wind Dir Waves Ship Positions

Amr R

Last reported at 2014-Oct-21 23:33 UTC. Time now 2014-Oct-22 06:26 UTC.
Position N 44°21' E 035°34'.

Length 130 m; draft 5.7 m.

Type: Cargo ship. MMSI: 514427000.

Date/timePositionNaut miles runAvg speedWind from/ knotsBaromVisibWave heightAir tempDewpointWater temp
2014-Oct-21 23:33N 44°21' E 035°34'11 9.9
2014-Oct-21 22:27N 44°15' E 035°21'304 9.7
2014-Oct-20 15:04N 41°27' E 029°35'5 9.2
2014-Oct-20 14:33N 41°25' E 029°30'34 8.2
2014-Oct-20 10:25N 40°59' E 028°60'4 3.5
2014-Oct-20 09:21N 40°56' E 028°57'2 1.1
2014-Oct-20 07:15N 40°58' E 028°56'0 0.0
2014-Oct-20 02:29N 40°58' E 028°56'0 0.0
2014-Oct-19 23:28N 40°58' E 028°56'0 0.0
2014-Oct-19 22:30N 40°58' E 028°56'0 0.0
2014-Oct-19 21:21N 40°58' E 028°56'0 0.0
2014-Oct-19 20:30N 40°58' E 028°56'0 0.0
2014-Oct-19 19:29N 40°58' E 028°56'0 0.0
2014-Oct-19 18:25N 40°58' E 028°56'0 0.0
2014-Oct-19 17:28N 40°58' E 028°56'0 0.0
2014-Oct-19 16:30N 40°58' E 028°56'0 0.0
2014-Oct-19 15:17N 40°58' E 028°56'0 0.0
2014-Oct-19 14:11N 40°58' E 028°56'0 0.1
2014-Oct-19 13:31N 40°58' E 028°56'0 0.0
2014-Oct-19 12:23N 40°58' E 028°56'0 0.0
2014-Oct-19 11:13N 40°58' E 028°56'0 0.0
2014-Oct-19 10:14N 40°58' E 028°56'0 0.0
2014-Oct-19 03:27N 40°58' E 028°56'0 0.0
2014-Oct-19 00:33N 40°58' E 028°56'1 1.2
2014-Oct-18 23:32N 40°57' E 028°56'5 5.0
2014-Oct-18 22:33N 40°53' E 028°53'10 8.1
2014-Oct-18 21:19N 40°50' E 028°40'138 8.0
2014-Oct-18 04:03N 39°53' E 025°55'105 9.9
2014-Oct-17 17:28N 38°08' E 025°45'12 9.9
2014-Oct-17 16:17N 37°57' E 025°46'10 9.8
2014-Oct-17 15:16N 37°47' E 025°49'16 9.4
2014-Oct-17 13:33N 37°32' E 025°55'9 9.0
2014-Oct-17 12:33N 37°25' E 026°02'10 9.5
2014-Oct-17 11:32N 37°18' E 026°11'9 8.9
2014-Oct-17 10:31N 37°12' E 026°20'9 9.4
2014-Oct-17 09:33N 37°06' E 026°28'10 9.4
2014-Oct-17 08:33N 36°59' E 026°36'9 8.9
2014-Oct-17 07:33N 36°52' E 026°43'9 8.8
2014-Oct-17 06:33N 36°45' E 026°49'9 8.8
2014-Oct-17 05:33N 36°38' E 026°56'9 8.9
2014-Oct-17 04:33N 36°31' E 027°02'9 9.1
2014-Oct-17 03:33N 36°23' E 027°07'9 9.1
2014-Oct-17 02:33N 36°14' E 027°12'10 9.2
2014-Oct-17 01:26N 36°05' E 027°18'8 9.2
2014-Oct-17 00:33N 35°58' E 027°22'9 9.0
2014-Oct-16 23:31N 35°49' E 027°27'9 9.3
2014-Oct-16 22:31N 35°41' E 027°32'9 9.2
2014-Oct-16 21:33N 35°33' E 027°37'10 9.1
2014-Oct-16 20:30N 35°25' E 027°43'12 8.8
2014-Oct-16 19:07N 35°14' E 027°49'5 8.7
2014-Oct-16 18:33N 35°09' E 027°52'9 8.6
2014-Oct-16 17:33N 35°02' E 027°57'9 8.7
2014-Oct-16 16:33N 34°54' E 028°02'10 9.0
2014-Oct-16 15:29N 34°46' E 028°08'8 9.1
2014-Oct-16 14:33N 34°38' E 028°12'11 9.2
2014-Oct-16 13:21N 34°28' E 028°18'  
Track history (hours):
 
Tides and Currents Weather Stations Pressure Air Temp Water Temp Dewpoint Dewpoint Depression Visibility Wind Speed Wind Dir Waves Ship Positions

Amr R

Last reported at 2014-Oct-21 23:33 UTC. Time now 2014-Oct-22 06:26 UTC.
Position N 44°21' E 035°34'.

Length 130 m; draft 5.7 m.

Type: Cargo ship. MMSI: 514427000.

Date/timePositionNaut miles runAvg speedWind from/ knotsBaromVisibWave heightAir tempDewpointWater temp
2014-Oct-21 23:33N 44°21' E 035°34'11 9.9
2014-Oct-21 22:27N 44°15' E 035°21'304 9.7
2014-Oct-20 15:04N 41°27' E 029°35'5 9.2
2014-Oct-20 14:33N 41°25' E 029°30'34 8.2
2014-Oct-20 10:25N 40°59' E 028°60'4 3.5
2014-Oct-20 09:21N 40°56' E 028°57'2 1.1
2014-Oct-20 07:15N 40°58' E 028°56'0 0.0
2014-Oct-20 02:29N 40°58' E 028°56'0 0.0
2014-Oct-19 23:28N 40°58' E 028°56'0 0.0
2014-Oct-19 22:30N 40°58' E 028°56'0 0.0
2014-Oct-19 21:21N 40°58' E 028°56'0 0.0
2014-Oct-19 20:30N 40°58' E 028°56'0 0.0
2014-Oct-19 19:29N 40°58' E 028°56'0 0.0
2014-Oct-19 18:25N 40°58' E 028°56'0 0.0
2014-Oct-19 17:28N 40°58' E 028°56'0 0.0
2014-Oct-19 16:30N 40°58' E 028°56'0 0.0
2014-Oct-19 15:17N 40°58' E 028°56'0 0.0
2014-Oct-19 14:11N 40°58' E 028°56'0 0.1
2014-Oct-19 13:31N 40°58' E 028°56'0 0.0
2014-Oct-19 12:23N 40°58' E 028°56'0 0.0
2014-Oct-19 11:13N 40°58' E 028°56'0 0.0
2014-Oct-19 10:14N 40°58' E 028°56'0 0.0
2014-Oct-19 03:27N 40°58' E 028°56'0 0.0
2014-Oct-19 00:33N 40°58' E 028°56'1 1.2
2014-Oct-18 23:32N 40°57' E 028°56'5 5.0
2014-Oct-18 22:33N 40°53' E 028°53'10 8.1
2014-Oct-18 21:19N 40°50' E 028°40'138 8.0
2014-Oct-18 04:03N 39°53' E 025°55'105 9.9
2014-Oct-17 17:28N 38°08' E 025°45'12 9.9
2014-Oct-17 16:17N 37°57' E 025°46'10 9.8
2014-Oct-17 15:16N 37°47' E 025°49'16 9.4
2014-Oct-17 13:33N 37°32' E 025°55'9 9.0
2014-Oct-17 12:33N 37°25' E 026°02'10 9.5
2014-Oct-17 11:32N 37°18' E 026°11'9 8.9
2014-Oct-17 10:31N 37°12' E 026°20'9 9.4
2014-Oct-17 09:33N 37°06' E 026°28'10 9.4
2014-Oct-17 08:33N 36°59' E 026°36'9 8.9
2014-Oct-17 07:33N 36°52' E 026°43'9 8.8
2014-Oct-17 06:33N 36°45' E 026°49'9 8.8
2014-Oct-17 05:33N 36°38' E 026°56'9 8.9
2014-Oct-17 04:33N 36°31' E 027°02'9 9.1
2014-Oct-17 03:33N 36°23' E 027°07'9 9.1
2014-Oct-17 02:33N 36°14' E 027°12'10 9.2
2014-Oct-17 01:26N 36°05' E 027°18'8 9.2
2014-Oct-17 00:33N 35°58' E 027°22'9 9.0
2014-Oct-16 23:31N 35°49' E 027°27'9 9.3
2014-Oct-16 22:31N 35°41' E 027°32'9 9.2
2014-Oct-16 21:33N 35°33' E 027°37'10 9.1
2014-Oct-16 20:30N 35°25' E 027°43'12 8.8
2014-Oct-16 19:07N 35°14' E 027°49'5 8.7
2014-Oct-16 18:33N 35°09' E 027°52'9 8.6
2014-Oct-16 17:33N 35°02' E 027°57'9 8.7
2014-Oct-16 16:33N 34°54' E 028°02'10 9.0
2014-Oct-16 15:29N 34°46' E 028°08'8 9.1
2014-Oct-16 14:33N 34°38' E 028°12'11 9.2
2014-Oct-16 13:21N 34°28' E 028°18'  

Dump ship's entire track history